sensor_id;sensor_type;location;lat;lon;timestamp;temperature;humidity
26990;DHT22;14537;47.788;11.858;2023-03-16T00:02:17;1.20;99.90
26990;DHT22;14537;47.788;11.858;2023-03-16T00:04:43;1.20;99.90
26990;DHT22;14537;47.788;11.858;2023-03-16T00:07:13;1.20;99.90
26990;DHT22;14537;47.788;11.858;2023-03-16T00:09:39;1.20;99.90
26990;DHT22;14537;47.788;11.858;2023-03-16T00:12:24;1.20;99.90
26990;DHT22;14537;47.788;11.858;2023-03-16T00:14:50;1.20;99.90
26990;DHT22;14537;47.788;11.858;2023-03-16T00:17:18;1.20;99.90
26990;DHT22;14537;47.788;11.858;2023-03-16T00:19:49;1.20;99.90
26990;DHT22;14537;47.788;11.858;2023-03-16T00:22:20;1.20;99.90
26990;DHT22;14537;47.788;11.858;2023-03-16T00:24:46;1.20;99.90
26990;DHT22;14537;47.788;11.858;2023-03-16T00:27:12;1.20;99.90
26990;DHT22;14537;47.788;11.858;2023-03-16T00:29:45;1.20;99.90
26990;DHT22;14537;47.788;11.858;2023-03-16T00:32:17;1.20;99.90
26990;DHT22;14537;47.788;11.858;2023-03-16T00:34:44;1.20;99.90
26990;DHT22;14537;47.788;11.858;2023-03-16T00:37:10;1.20;99.90
26990;DHT22;14537;47.788;11.858;2023-03-16T00:39:38;1.10;99.90
26990;DHT22;14537;47.788;11.858;2023-03-16T00:42:05;1.10;99.90
26990;DHT22;14537;47.788;11.858;2023-03-16T00:44:30;1.10;99.90
26990;DHT22;14537;47.788;11.858;2023-03-16T00:46:56;1.20;99.90
26990;DHT22;14537;47.788;11.858;2023-03-16T00:49:22;1.10;99.90
26990;DHT22;14537;47.788;11.858;2023-03-16T00:51:47;1.10;99.90
26990;DHT22;14537;47.788;11.858;2023-03-16T00:54:13;1.10;99.90
26990;DHT22;14537;47.788;11.858;2023-03-16T00:56:39;1.10;99.90
26990;DHT22;14537;47.788;11.858;2023-03-16T00:59:04;1.10;99.90
26990;DHT22;14537;47.788;11.858;2023-03-16T01:01:31;1.10;99.90
26990;DHT22;14537;47.788;11.858;2023-03-16T01:03:59;1.10;99.90
26990;DHT22;14537;47.788;11.858;2023-03-16T01:06:26;1.10;99.90
26990;DHT22;14537;47.788;11.858;2023-03-16T01:08:52;1.10;99.90
26990;DHT22;14537;47.788;11.858;2023-03-16T01:11:20;1.10;99.90
26990;DHT22;14537;47.788;11.858;2023-03-16T01:13:47;1.20;99.90
26990;DHT22;14537;47.788;11.858;2023-03-16T01:16:13;1.20;99.90
26990;DHT22;14537;47.788;11.858;2023-03-16T01:18:39;1.20;99.90
26990;DHT22;14537;47.788;11.858;2023-03-16T01:21:07;1.20;99.90
26990;DHT22;14537;47.788;11.858;2023-03-16T01:23:34;1.20;99.90
26990;DHT22;14537;47.788;11.858;2023-03-16T01:26:00;1.20;99.90
26990;DHT22;14537;47.788;11.858;2023-03-16T01:28:28;1.10;99.90
26990;DHT22;14537;47.788;11.858;2023-03-16T01:30:57;1.10;99.90
26990;DHT22;14537;47.788;11.858;2023-03-16T01:33:26;1.10;99.90
26990;DHT22;14537;47.788;11.858;2023-03-16T01:38:18;1.00;99.90
26990;DHT22;14537;47.788;11.858;2023-03-16T01:40:44;1.00;99.90
26990;DHT22;14537;47.788;11.858;2023-03-16T01:43:10;1.00;99.90
26990;DHT22;14537;47.788;11.858;2023-03-16T01:56:51;0.80;99.90
26990;DHT22;14537;47.788;11.858;2023-03-16T01:59:21;0.90;99.90
26990;DHT22;14537;47.788;11.858;2023-03-16T02:01:48;0.80;99.90
26990;DHT22;14537;47.788;11.858;2023-03-16T02:06:54;0.70;99.90
26990;DHT22;14537;47.788;11.858;2023-03-16T02:09:21;0.70;99.90
26990;DHT22;14537;47.788;11.858;2023-03-16T02:11:47;0.70;99.90
26990;DHT22;14537;47.788;11.858;2023-03-16T02:14:13;0.60;99.90
26990;DHT22;14537;47.788;11.858;2023-03-16T02:16:39;0.50;99.90
26990;DHT22;14537;47.788;11.858;2023-03-16T02:19:11;0.50;99.90
26990;DHT22;14537;47.788;11.858;2023-03-16T02:24:38;0.40;99.90
26990;DHT22;14537;47.788;11.858;2023-03-16T02:27:11;0.40;99.90
26990;DHT22;14537;47.788;11.858;2023-03-16T02:30:05;0.40;99.90
26990;DHT22;14537;47.788;11.858;2023-03-16T02:32:32;0.30;99.90
26990;DHT22;14537;47.788;11.858;2023-03-16T02:35:00;0.30;99.90
26990;DHT22;14537;47.788;11.858;2023-03-16T02:37:27;0.30;99.90
26990;DHT22;14537;47.788;11.858;2023-03-16T02:39:53;0.30;99.90
26990;DHT22;14537;47.788;11.858;2023-03-16T02:42:21;0.30;99.90
26990;DHT22;14537;47.788;11.858;2023-03-16T02:44:51;0.30;99.90
26990;DHT22;14537;47.788;11.858;2023-03-16T02:47:42;0.10;99.90
26990;DHT22;14537;47.788;11.858;2023-03-16T02:50:10;0.10;99.90
26990;DHT22;14537;47.788;11.858;2023-03-16T02:52:37;0.10;99.90
26990;DHT22;14537;47.788;11.858;2023-03-16T02:55:04;0.00;99.90
26990;DHT22;14537;47.788;11.858;2023-03-16T02:57:30;0.00;99.90
26990;DHT22;14537;47.788;11.858;2023-03-16T02:59:56;-0.10;99.90
26990;DHT22;14537;47.788;11.858;2023-03-16T03:02:22;-0.10;99.90
26990;DHT22;14537;47.788;11.858;2023-03-16T03:04:47;-0.10;99.90
26990;DHT22;14537;47.788;11.858;2023-03-16T03:07:14;-0.10;99.90
26990;DHT22;14537;47.788;11.858;2023-03-16T03:09:40;-0.20;99.90
26990;DHT22;14537;47.788;11.858;2023-03-16T03:12:08;-0.30;99.90
26990;DHT22;14537;47.788;11.858;2023-03-16T03:14:34;-0.30;99.90
26990;DHT22;14537;47.788;11.858;2023-03-16T03:17:07;-0.30;99.90
26990;DHT22;14537;47.788;11.858;2023-03-16T03:19:34;-0.40;99.90
26990;DHT22;14537;47.788;11.858;2023-03-16T03:22:02;-0.40;99.90
26990;DHT22;14537;47.788;11.858;2023-03-16T03:24:31;-0.50;99.90
26990;DHT22;14537;47.788;11.858;2023-03-16T03:26:57;-0.40;99.90
26990;DHT22;14537;47.788;11.858;2023-03-16T03:29:26;-0.40;99.90
26990;DHT22;14537;47.788;11.858;2023-03-16T03:32:00;-0.40;99.90
26990;DHT22;14537;47.788;11.858;2023-03-16T03:34:27;-0.50;99.90
26990;DHT22;14537;47.788;11.858;2023-03-16T03:36:52;-0.40;99.90
26990;DHT22;14537;47.788;11.858;2023-03-16T03:39:18;-0.60;99.90
26990;DHT22;14537;47.788;11.858;2023-03-16T03:41:44;-0.60;99.90
26990;DHT22;14537;47.788;11.858;2023-03-16T03:44:09;-0.60;99.90
26990;DHT22;14537;47.788;11.858;2023-03-16T03:46:35;-0.60;99.90
26990;DHT22;14537;47.788;11.858;2023-03-16T03:49:01;-0.70;99.90
26990;DHT22;14537;47.788;11.858;2023-03-16T03:51:30;-0.70;99.90
26990;DHT22;14537;47.788;11.858;2023-03-16T03:53:56;-0.80;99.90
26990;DHT22;14537;47.788;11.858;2023-03-16T03:56:22;-0.80;99.90
26990;DHT22;14537;47.788;11.858;2023-03-16T03:58:48;-0.90;99.90
26990;DHT22;14537;47.788;11.858;2023-03-16T04:01:13;-0.90;99.90
26990;DHT22;14537;47.788;11.858;2023-03-16T04:03:39;-0.90;99.90
26990;DHT22;14537;47.788;11.858;2023-03-16T04:06:05;-0.90;99.90
26990;DHT22;14537;47.788;11.858;2023-03-16T04:08:32;-0.90;99.90
26990;DHT22;14537;47.788;11.858;2023-03-16T04:10:59;-0.90;99.90
26990;DHT22;14537;47.788;11.858;2023-03-16T04:13:25;-1.00;99.90
26990;DHT22;14537;47.788;11.858;2023-03-16T04:15:58;-1.00;99.90
26990;DHT22;14537;47.788;11.858;2023-03-16T04:18:24;-1.10;99.90
26990;DHT22;14537;47.788;11.858;2023-03-16T04:20:50;-1.00;99.90
26990;DHT22;14537;47.788;11.858;2023-03-16T04:23:18;-1.00;99.90
26990;DHT22;14537;47.788;11.858;2023-03-16T04:25:44;-1.00;99.90
26990;DHT22;14537;47.788;11.858;2023-03-16T04:28:10;-1.00;99.90
26990;DHT22;14537;47.788;11.858;2023-03-16T04:30:36;-1.00;99.90
26990;DHT22;14537;47.788;11.858;2023-03-16T04:33:02;-1.00;99.90
26990;DHT22;14537;47.788;11.858;2023-03-16T04:35:28;-1.00;99.90
26990;DHT22;14537;47.788;11.858;2023-03-16T04:37:54;-1.10;99.90
26990;DHT22;14537;47.788;11.858;2023-03-16T04:40:20;-1.10;99.90
26990;DHT22;14537;47.788;11.858;2023-03-16T04:42:46;-1.10;99.90
26990;DHT22;14537;47.788;11.858;2023-03-16T04:45:13;-1.10;99.90
26990;DHT22;14537;47.788;11.858;2023-03-16T04:47:39;-1.10;99.90
26990;DHT22;14537;47.788;11.858;2023-03-16T04:50:06;-1.20;99.90
26990;DHT22;14537;47.788;11.858;2023-03-16T04:52:32;-1.20;99.90
26990;DHT22;14537;47.788;11.858;2023-03-16T04:54:58;-1.20;99.90
26990;DHT22;14537;47.788;11.858;2023-03-16T04:57:24;-1.20;99.90
26990;DHT22;14537;47.788;11.858;2023-03-16T04:59:50;-1.30;99.90
26990;DHT22;14537;47.788;11.858;2023-03-16T05:02:15;-1.30;99.90
26990;DHT22;14537;47.788;11.858;2023-03-16T05:04:42;-1.30;99.90
26990;DHT22;14537;47.788;11.858;2023-03-16T05:07:08;-1.30;99.90
26990;DHT22;14537;47.788;11.858;2023-03-16T05:09:33;-1.30;99.90
26990;DHT22;14537;47.788;11.858;2023-03-16T05:11:59;-1.40;99.90
26990;DHT22;14537;47.788;11.858;2023-03-16T05:14:25;-1.40;99.90
26990;DHT22;14537;47.788;11.858;2023-03-16T05:16:50;-1.40;99.90
26990;DHT22;14537;47.788;11.858;2023-03-16T05:19:16;-1.30;99.90
26990;DHT22;14537;47.788;11.858;2023-03-16T05:21:42;-1.40;99.90
26990;DHT22;14537;47.788;11.858;2023-03-16T05:24:08;-1.40;99.90
26990;DHT22;14537;47.788;11.858;2023-03-16T05:26:33;-1.50;99.90
26990;DHT22;14537;47.788;11.858;2023-03-16T05:28:59;-1.50;99.90
26990;DHT22;14537;47.788;11.858;2023-03-16T05:31:25;-1.50;99.90
26990;DHT22;14537;47.788;11.858;2023-03-16T05:33:52;-1.50;99.90
26990;DHT22;14537;47.788;11.858;2023-03-16T05:36:18;-1.50;99.90
26990;DHT22;14537;47.788;11.858;2023-03-16T05:38:44;-1.50;99.90
26990;DHT22;14537;47.788;11.858;2023-03-16T05:41:10;-1.50;99.90
26990;DHT22;14537;47.788;11.858;2023-03-16T05:43:36;-1.50;99.90
26990;DHT22;14537;47.788;11.858;2023-03-16T05:46:02;-1.60;99.90
26990;DHT22;14537;47.788;11.858;2023-03-16T05:48:28;-1.60;99.90
26990;DHT22;14537;47.788;11.858;2023-03-16T05:50:54;-1.60;99.90
26990;DHT22;14537;47.788;11.858;2023-03-16T05:53:20;-1.60;99.90
26990;DHT22;14537;47.788;11.858;2023-03-16T05:55:54;-1.60;99.90
26990;DHT22;14537;47.788;11.858;2023-03-16T05:58:19;-1.60;99.90
26990;DHT22;14537;47.788;11.858;2023-03-16T06:00:45;-1.50;99.90
26990;DHT22;14537;47.788;11.858;2023-03-16T06:03:11;-1.50;99.90
26990;DHT22;14537;47.788;11.858;2023-03-16T06:05:37;-1.40;99.90
26990;DHT22;14537;47.788;11.858;2023-03-16T06:08:03;-1.40;99.90
26990;DHT22;14537;47.788;11.858;2023-03-16T06:10:29;-1.30;99.90
26990;DHT22;14537;47.788;11.858;2023-03-16T06:12:54;-1.20;99.90
26990;DHT22;14537;47.788;11.858;2023-03-16T06:15:20;-1.10;99.90
26990;DHT22;14537;47.788;11.858;2023-03-16T06:17:49;-1.00;99.90
26990;DHT22;14537;47.788;11.858;2023-03-16T06:20:15;-1.00;99.90
26990;DHT22;14537;47.788;11.858;2023-03-16T06:22:42;-0.90;99.90
26990;DHT22;14537;47.788;11.858;2023-03-16T06:25:09;-0.80;99.90
26990;DHT22;14537;47.788;11.858;2023-03-16T06:27:36;-0.70;99.90
26990;DHT22;14537;47.788;11.858;2023-03-16T06:30:03;-0.60;99.90
26990;DHT22;14537;47.788;11.858;2023-03-16T06:32:29;-0.50;99.90
26990;DHT22;14537;47.788;11.858;2023-03-16T06:34:54;-0.50;99.90
26990;DHT22;14537;47.788;11.858;2023-03-16T06:37:20;-0.40;99.90
26990;DHT22;14537;47.788;11.858;2023-03-16T06:39:46;-0.30;99.90
26990;DHT22;14537;47.788;11.858;2023-03-16T06:42:12;-0.30;99.90
26990;DHT22;14537;47.788;11.858;2023-03-16T06:44:37;-0.20;99.90
26990;DHT22;14537;47.788;11.858;2023-03-16T06:47:03;-0.10;99.90
26990;DHT22;14537;47.788;11.858;2023-03-16T06:49:29;-0.10;99.90
26990;DHT22;14537;47.788;11.858;2023-03-16T06:51:54;0.00;99.90
26990;DHT22;14537;47.788;11.858;2023-03-16T06:54:23;0.10;99.90
26990;DHT22;14537;47.788;11.858;2023-03-16T06:56:48;0.10;99.90
26990;DHT22;14537;47.788;11.858;2023-03-16T06:59:14;0.20;99.90
26990;DHT22;14537;47.788;11.858;2023-03-16T07:01:40;0.20;99.90
26990;DHT22;14537;47.788;11.858;2023-03-16T07:04:06;0.10;99.90
26990;DHT22;14537;47.788;11.858;2023-03-16T07:06:32;0.10;99.90
26990;DHT22;14537;47.788;11.858;2023-03-16T07:08:58;0.10;99.90
26990;DHT22;14537;47.788;11.858;2023-03-16T07:11:25;0.20;99.90
26990;DHT22;14537;47.788;11.858;2023-03-16T07:13:51;0.10;99.90
26990;DHT22;14537;47.788;11.858;2023-03-16T07:16:17;0.10;99.90
26990;DHT22;14537;47.788;11.858;2023-03-16T07:18:42;0.00;99.90
26990;DHT22;14537;47.788;11.858;2023-03-16T07:21:09;0.00;99.90
26990;DHT22;14537;47.788;11.858;2023-03-16T07:23:35;0.10;99.90
26990;DHT22;14537;47.788;11.858;2023-03-16T07:26:01;0.10;99.90
26990;DHT22;14537;47.788;11.858;2023-03-16T07:28:26;0.20;99.90
26990;DHT22;14537;47.788;11.858;2023-03-16T07:30:52;0.20;99.90
26990;DHT22;14537;47.788;11.858;2023-03-16T07:33:18;0.20;99.90
26990;DHT22;14537;47.788;11.858;2023-03-16T07:35:45;0.30;99.90
26990;DHT22;14537;47.788;11.858;2023-03-16T07:38:10;0.30;99.90
26990;DHT22;14537;47.788;11.858;2023-03-16T07:40:38;0.40;99.90
26990;DHT22;14537;47.788;11.858;2023-03-16T07:43:04;0.40;99.90
26990;DHT22;14537;47.788;11.858;2023-03-16T07:45:30;0.50;99.90
26990;DHT22;14537;47.788;11.858;2023-03-16T07:47:56;0.60;99.90
26990;DHT22;14537;47.788;11.858;2023-03-16T07:50:21;0.70;99.90
26990;DHT22;14537;47.788;11.858;2023-03-16T07:52:47;0.80;99.90
26990;DHT22;14537;47.788;11.858;2023-03-16T07:55:13;0.80;99.90
26990;DHT22;14537;47.788;11.858;2023-03-16T07:57:38;0.80;99.90
26990;DHT22;14537;47.788;11.858;2023-03-16T08:00:07;0.90;99.90
26990;DHT22;14537;47.788;11.858;2023-03-16T08:02:33;0.90;99.90
26990;DHT22;14537;47.788;11.858;2023-03-16T08:04:59;0.90;99.90
26990;DHT22;14537;47.788;11.858;2023-03-16T08:07:24;0.90;99.90
26990;DHT22;14537;47.788;11.858;2023-03-16T08:09:51;1.00;99.90
26990;DHT22;14537;47.788;11.858;2023-03-16T08:12:17;1.00;99.90
26990;DHT22;14537;47.788;11.858;2023-03-16T08:14:42;0.90;99.90
26990;DHT22;14537;47.788;11.858;2023-03-16T08:17:10;0.90;99.90
26990;DHT22;14537;47.788;11.858;2023-03-16T08:19:37;1.00;99.90
26990;DHT22;14537;47.788;11.858;2023-03-16T08:22:04;1.00;99.90
26990;DHT22;14537;47.788;11.858;2023-03-16T08:24:30;1.00;99.90
26990;DHT22;14537;47.788;11.858;2023-03-16T08:26:57;1.00;99.90
26990;DHT22;14537;47.788;11.858;2023-03-16T08:29:24;1.10;99.90
26990;DHT22;14537;47.788;11.858;2023-03-16T08:31:52;1.10;99.90
26990;DHT22;14537;47.788;11.858;2023-03-16T08:34:21;1.10;99.90
26990;DHT22;14537;47.788;11.858;2023-03-16T08:36:46;1.20;99.90
26990;DHT22;14537;47.788;11.858;2023-03-16T08:39:12;1.30;99.90
26990;DHT22;14537;47.788;11.858;2023-03-16T08:41:38;1.30;99.90
26990;DHT22;14537;47.788;11.858;2023-03-16T08:44:05;1.40;99.90
26990;DHT22;14537;47.788;11.858;2023-03-16T08:46:32;1.50;99.90
26990;DHT22;14537;47.788;11.858;2023-03-16T08:48:58;1.50;99.90
26990;DHT22;14537;47.788;11.858;2023-03-16T08:51:24;1.50;99.90
26990;DHT22;14537;47.788;11.858;2023-03-16T08:53:51;1.40;99.90
26990;DHT22;14537;47.788;11.858;2023-03-16T08:56:17;1.20;99.90
26990;DHT22;14537;47.788;11.858;2023-03-16T08:58:42;1.30;99.90
26990;DHT22;14537;47.788;11.858;2023-03-16T09:01:14;1.40;99.90
26990;DHT22;14537;47.788;11.858;2023-03-16T09:03:40;1.40;99.90
26990;DHT22;14537;47.788;11.858;2023-03-16T09:06:10;1.60;99.90
26990;DHT22;14537;47.788;11.858;2023-03-16T09:08:36;1.60;99.90
26990;DHT22;14537;47.788;11.858;2023-03-16T09:11:08;1.80;99.90
26990;DHT22;14537;47.788;11.858;2023-03-16T09:13:34;1.80;99.90
26990;DHT22;14537;47.788;11.858;2023-03-16T09:16:01;1.90;99.90
26990;DHT22;14537;47.788;11.858;2023-03-16T09:18:27;2.00;99.90
26990;DHT22;14537;47.788;11.858;2023-03-16T09:20:59;2.10;99.90
26990;DHT22;14537;47.788;11.858;2023-03-16T09:23:26;2.20;99.90
26990;DHT22;14537;47.788;11.858;2023-03-16T09:25:52;2.20;99.90
26990;DHT22;14537;47.788;11.858;2023-03-16T09:28:19;2.20;99.90
26990;DHT22;14537;47.788;11.858;2023-03-16T09:30:45;2.30;99.90
26990;DHT22;14537;47.788;11.858;2023-03-16T09:33:11;2.40;99.90
26990;DHT22;14537;47.788;11.858;2023-03-16T09:35:37;2.40;99.90
26990;DHT22;14537;47.788;11.858;2023-03-16T09:38:03;2.50;99.90
26990;DHT22;14537;47.788;11.858;2023-03-16T09:40:29;2.60;99.90
26990;DHT22;14537;47.788;11.858;2023-03-16T09:45:40;2.80;99.90
26990;DHT22;14537;47.788;11.858;2023-03-16T09:48:08;2.80;99.90
26990;DHT22;14537;47.788;11.858;2023-03-16T09:50:38;2.90;99.90
26990;DHT22;14537;47.788;11.858;2023-03-16T09:53:12;3.00;99.90
26990;DHT22;14537;47.788;11.858;2023-03-16T09:55:45;3.10;99.90
26990;DHT22;14537;47.788;11.858;2023-03-16T09:58:16;3.20;99.90
26990;DHT22;14537;47.788;11.858;2023-03-16T10:01:02;3.20;99.90
26990;DHT22;14537;47.788;11.858;2023-03-16T10:06:10;3.30;99.90
26990;DHT22;14537;47.788;11.858;2023-03-16T10:08:39;3.40;99.90
26990;DHT22;14537;47.788;11.858;2023-03-16T10:17:00;3.60;99.90
26990;DHT22;14537;47.788;11.858;2023-03-16T10:19:35;3.70;99.90
26990;DHT22;14537;47.788;11.858;2023-03-16T10:22:15;3.90;99.90
26990;DHT22;14537;47.788;11.858;2023-03-16T10:27:31;3.70;99.90
26990;DHT22;14537;47.788;11.858;2023-03-16T10:29:57;3.60;99.90
26990;DHT22;14537;47.788;11.858;2023-03-16T10:32:30;3.60;99.90
26990;DHT22;14537;47.788;11.858;2023-03-16T10:35:12;3.80;99.90
26990;DHT22;14537;47.788;11.858;2023-03-16T10:37:40;3.90;99.90
26990;DHT22;14537;47.788;11.858;2023-03-16T10:40:07;3.90;99.90
26990;DHT22;14537;47.788;11.858;2023-03-16T10:42:35;3.90;99.90
26990;DHT22;14537;47.788;11.858;2023-03-16T10:45:01;4.00;99.90
26990;DHT22;14537;47.788;11.858;2023-03-16T10:47:31;4.10;99.90
26990;DHT22;14537;47.788;11.858;2023-03-16T10:49:57;4.30;99.90
26990;DHT22;14537;47.788;11.858;2023-03-16T10:52:32;4.50;99.90
26990;DHT22;14537;47.788;11.858;2023-03-16T10:55:19;4.50;99.90
26990;DHT22;14537;47.788;11.858;2023-03-16T10:57:51;4.60;99.90
26990;DHT22;14537;47.788;11.858;2023-03-16T11:02:47;4.70;99.90
26990;DHT22;14537;47.788;11.858;2023-03-16T11:07:49;4.50;99.90
26990;DHT22;14537;47.788;11.858;2023-03-16T11:10:31;4.40;99.90
26990;DHT22;14537;47.788;11.858;2023-03-16T11:15:57;4.40;99.90
26990;DHT22;14537;47.788;11.858;2023-03-16T11:18:29;4.40;99.90
26990;DHT22;14537;47.788;11.858;2023-03-16T11:20:56;4.40;99.90
26990;DHT22;14537;47.788;11.858;2023-03-16T11:23:33;4.40;99.90
26990;DHT22;14537;47.788;11.858;2023-03-16T11:26:05;4.40;99.90
26990;DHT22;14537;47.788;11.858;2023-03-16T11:28:37;4.50;99.90
26990;DHT22;14537;47.788;11.858;2023-03-16T11:31:15;4.50;99.90
26990;DHT22;14537;47.788;11.858;2023-03-16T11:33:41;4.60;99.90
26990;DHT22;14537;47.788;11.858;2023-03-16T11:41:53;4.90;99.90
26990;DHT22;14537;47.788;11.858;2023-03-16T11:44:32;5.10;99.90
26990;DHT22;14537;47.788;11.858;2023-03-16T11:49:44;5.40;99.90
26990;DHT22;14537;47.788;11.858;2023-03-16T11:58:13;5.60;99.90
26990;DHT22;14537;47.788;11.858;2023-03-16T12:03:15;5.80;99.90
26990;DHT22;14537;47.788;11.858;2023-03-16T12:05:59;5.80;99.90
26990;DHT22;14537;47.788;11.858;2023-03-16T12:08:42;5.90;99.90
26990;DHT22;14537;47.788;11.858;2023-03-16T12:14:01;6.10;99.90
26990;DHT22;14537;47.788;11.858;2023-03-16T12:19:28;6.10;99.90
26990;DHT22;14537;47.788;11.858;2023-03-16T12:22:01;6.20;99.90
26990;DHT22;14537;47.788;11.858;2023-03-16T12:24:35;6.30;99.90
26990;DHT22;14537;47.788;11.858;2023-03-16T12:27:03;6.50;99.90
26990;DHT22;14537;47.788;11.858;2023-03-16T12:40:25;6.70;99.90
26990;DHT22;14537;47.788;11.858;2023-03-16T12:48:26;6.90;99.90
26990;DHT22;14537;47.788;11.858;2023-03-16T12:50:56;7.00;99.90
26990;DHT22;14537;47.788;11.858;2023-03-16T12:56:07;7.10;99.90
26990;DHT22;14537;47.788;11.858;2023-03-16T12:58:35;7.30;99.90
26990;DHT22;14537;47.788;11.858;2023-03-16T13:01:04;7.30;99.90
26990;DHT22;14537;47.788;11.858;2023-03-16T13:03:32;7.40;99.90
26990;DHT22;14537;47.788;11.858;2023-03-16T13:05:59;7.50;99.90
26990;DHT22;14537;47.788;11.858;2023-03-16T13:08:25;7.60;99.90
26990;DHT22;14537;47.788;11.858;2023-03-16T13:11:00;7.60;99.90
26990;DHT22;14537;47.788;11.858;2023-03-16T13:13:26;7.60;99.90
26990;DHT22;14537;47.788;11.858;2023-03-16T13:16:04;7.70;99.90
26990;DHT22;14537;47.788;11.858;2023-03-16T13:18:41;7.70;99.90
26990;DHT22;14537;47.788;11.858;2023-03-16T13:21:15;7.90;99.90
26990;DHT22;14537;47.788;11.858;2023-03-16T13:23:52;7.90;99.90
26990;DHT22;14537;47.788;11.858;2023-03-16T13:26:45;8.00;99.90
26990;DHT22;14537;47.788;11.858;2023-03-16T13:31:49;8.10;99.90
26990;DHT22;14537;47.788;11.858;2023-03-16T13:34:25;8.10;99.90
26990;DHT22;14537;47.788;11.858;2023-03-16T13:36:57;8.10;99.90
26990;DHT22;14537;47.788;11.858;2023-03-16T13:39:28;8.20;99.90
26990;DHT22;14537;47.788;11.858;2023-03-16T13:42:02;8.30;99.90
26990;DHT22;14537;47.788;11.858;2023-03-16T13:44:30;8.40;99.90
26990;DHT22;14537;47.788;11.858;2023-03-16T13:47:02;8.40;99.90
26990;DHT22;14537;47.788;11.858;2023-03-16T13:49:27;8.50;99.90
26990;DHT22;14537;47.788;11.858;2023-03-16T13:51:53;8.60;99.90
26990;DHT22;14537;47.788;11.858;2023-03-16T13:54:29;8.60;99.90
26990;DHT22;14537;47.788;11.858;2023-03-16T13:56:58;8.60;99.90
26990;DHT22;14537;47.788;11.858;2023-03-16T13:59:26;8.70;99.90
26990;DHT22;14537;47.788;11.858;2023-03-16T14:01:59;8.80;99.90
26990;DHT22;14537;47.788;11.858;2023-03-16T14:04:31;8.80;99.90
26990;DHT22;14537;47.788;11.858;2023-03-16T14:07:01;9.00;99.90
26990;DHT22;14537;47.788;11.858;2023-03-16T14:09:30;9.00;99.90
26990;DHT22;14537;47.788;11.858;2023-03-16T14:11:57;9.10;99.90
26990;DHT22;14537;47.788;11.858;2023-03-16T14:14:48;9.10;99.90
26990;DHT22;14537;47.788;11.858;2023-03-16T14:17:20;9.10;99.90
26990;DHT22;14537;47.788;11.858;2023-03-16T14:19:57;9.10;99.90
26990;DHT22;14537;47.788;11.858;2023-03-16T14:22:36;9.10;99.90
26990;DHT22;14537;47.788;11.858;2023-03-16T14:25:03;9.10;99.90
26990;DHT22;14537;47.788;11.858;2023-03-16T14:30:21;9.30;99.90
26990;DHT22;14537;47.788;11.858;2023-03-16T14:33:31;9.40;99.90
26990;DHT22;14537;47.788;11.858;2023-03-16T14:35:58;9.40;99.90
26990;DHT22;14537;47.788;11.858;2023-03-16T14:38:33;9.40;99.90
26990;DHT22;14537;47.788;11.858;2023-03-16T14:41:11;9.40;99.90
26990;DHT22;14537;47.788;11.858;2023-03-16T14:43:58;9.40;99.90
26990;DHT22;14537;47.788;11.858;2023-03-16T14:46:37;9.50;99.90
26990;DHT22;14537;47.788;11.858;2023-03-16T14:52:26;9.50;99.90
26990;DHT22;14537;47.788;11.858;2023-03-16T14:54:56;9.70;99.90
26990;DHT22;14537;47.788;11.858;2023-03-16T14:57:22;9.80;99.90
26990;DHT22;14537;47.788;11.858;2023-03-16T14:59:50;9.90;99.90
26990;DHT22;14537;47.788;11.858;2023-03-16T15:02:20;10.00;99.90
26990;DHT22;14537;47.788;11.858;2023-03-16T15:04:47;10.00;99.90
26990;DHT22;14537;47.788;11.858;2023-03-16T15:07:27;10.10;99.90
26990;DHT22;14537;47.788;11.858;2023-03-16T15:09:56;10.10;99.90
26990;DHT22;14537;47.788;11.858;2023-03-16T15:12:25;10.20;99.90
26990;DHT22;14537;47.788;11.858;2023-03-16T15:14:51;10.40;99.90
26990;DHT22;14537;47.788;11.858;2023-03-16T15:17:35;10.50;99.90
26990;DHT22;14537;47.788;11.858;2023-03-16T15:20:02;10.80;99.90
26990;DHT22;14537;47.788;11.858;2023-03-16T15:22:34;10.80;99.90
26990;DHT22;14537;47.788;11.858;2023-03-16T15:27:47;10.80;99.90
26990;DHT22;14537;47.788;11.858;2023-03-16T15:30:26;10.70;99.90
26990;DHT22;14537;47.788;11.858;2023-03-16T15:32:52;10.60;99.90
26990;DHT22;14537;47.788;11.858;2023-03-16T15:35:19;10.50;99.90
26990;DHT22;14537;47.788;11.858;2023-03-16T15:37:45;10.30;99.90
26990;DHT22;14537;47.788;11.858;2023-03-16T15:42:41;10.10;99.90
26990;DHT22;14537;47.788;11.858;2023-03-16T15:45:15;10.10;99.90
26990;DHT22;14537;47.788;11.858;2023-03-16T15:47:48;10.10;99.90
26990;DHT22;14537;47.788;11.858;2023-03-16T15:50:16;10.10;99.90
26990;DHT22;14537;47.788;11.858;2023-03-16T15:52:46;10.00;99.90
26990;DHT22;14537;47.788;11.858;2023-03-16T15:55:37;9.80;99.90
26990;DHT22;14537;47.788;11.858;2023-03-16T15:58:16;9.80;99.90
26990;DHT22;14537;47.788;11.858;2023-03-16T16:00:43;9.90;99.90
26990;DHT22;14537;47.788;11.858;2023-03-16T16:03:10;10.10;99.90
26990;DHT22;14537;47.788;11.858;2023-03-16T16:05:37;10.10;99.90
26990;DHT22;14537;47.788;11.858;2023-03-16T16:08:03;10.10;99.90
26990;DHT22;14537;47.788;11.858;2023-03-16T16:10:28;10.20;99.90
26990;DHT22;14537;47.788;11.858;2023-03-16T16:12:55;10.20;99.90
26990;DHT22;14537;47.788;11.858;2023-03-16T16:15:27;10.20;99.90
26990;DHT22;14537;47.788;11.858;2023-03-16T16:17:54;10.10;99.90
26990;DHT22;14537;47.788;11.858;2023-03-16T16:20:22;9.90;99.90
26990;DHT22;14537;47.788;11.858;2023-03-16T16:22:49;9.70;99.90
26990;DHT22;14537;47.788;11.858;2023-03-16T16:25:16;9.50;99.90
26990;DHT22;14537;47.788;11.858;2023-03-16T16:27:43;9.20;99.90
26990;DHT22;14537;47.788;11.858;2023-03-16T16:30:30;9.00;99.90
26990;DHT22;14537;47.788;11.858;2023-03-16T16:32:56;8.80;99.90
26990;DHT22;14537;47.788;11.858;2023-03-16T16:35:25;8.60;99.90
26990;DHT22;14537;47.788;11.858;2023-03-16T16:37:51;8.50;99.90
26990;DHT22;14537;47.788;11.858;2023-03-16T16:40:24;8.40;99.90
26990;DHT22;14537;47.788;11.858;2023-03-16T16:42:56;8.30;99.90
26990;DHT22;14537;47.788;11.858;2023-03-16T16:45:24;8.20;99.90
26990;DHT22;14537;47.788;11.858;2023-03-16T16:47:54;8.10;99.90
26990;DHT22;14537;47.788;11.858;2023-03-16T16:50:21;8.00;99.90
26990;DHT22;14537;47.788;11.858;2023-03-16T16:52:49;7.90;99.90
26990;DHT22;14537;47.788;11.858;2023-03-16T16:55:15;7.70;99.90
26990;DHT22;14537;47.788;11.858;2023-03-16T16:57:41;7.60;99.90
26990;DHT22;14537;47.788;11.858;2023-03-16T17:00:24;7.50;99.90
26990;DHT22;14537;47.788;11.858;2023-03-16T17:02:52;7.40;99.90
26990;DHT22;14537;47.788;11.858;2023-03-16T17:05:26;7.30;99.90
26990;DHT22;14537;47.788;11.858;2023-03-16T17:07:52;7.10;99.90
26990;DHT22;14537;47.788;11.858;2023-03-16T17:10:21;7.00;99.90
26990;DHT22;14537;47.788;11.858;2023-03-16T17:12:48;6.80;99.90